Pagrindinis puslapis
METAR-TAF:

METAR-TAF

Oro uostai :

Batervortas, Malaizija

platuma: 05-27-58N, ilguma: 100-23-28E, Aukštis: 2 m

Dabartinis oras

Ataskaita buvo paskelbta 25 minutes, ne 00:00 UTC
Vėjas 3 kt nuo kintamojo kryptimis
Temperatūra 22°C
Drėgmė 88%
Slėgis 1008 hPa
Matomumas: 8000 m
Mažai debesys ne aukštis 2000 ft

METAR: WMKB 270000Z VRB03KT 8000 FEW020 22/20 Q1008 NOSIG

Laikas: 08:25 (00:25 UTC)

Prognozė

Ataskaita buvo paskelbta 1 valandą ir 25 minutes, ne 23:00 UTC
Prognozė galioja nuo 27 metu 00 UTC su 28 metu 00 UTC
Vėjas 3 kt iš Rytų/Šiaurės Rytų
Matomumas: 9000 m
Mažai debesys ne aukštis 2000 ft
Tapsmas
nuo 27 metu 03 UTC su 27 metu 05 UTC
Vėjas 10 kt iš Vakarų/Šiaurės Vakarų
Matomumas: 7000 m

TAF: WMKB 262300Z 2700/2800 07003KT 9000 FEW020 BECMG 2703/2705 30010KT 7000

Orai ataskaitas ir orų prognozės (METAR, TAF).

turimą stotys yra geltonos ir raudonos taškus žemėlapyje.

Perkelti pele per norėdami pamatyti stoties vardą.

Tada spustelėkite, norėdami matyti oro stebėjimo ir prognozės.

Norėdami pakeisti žemėlapį: spustelėkite ant žalios mygtukų su juodo kryžiaus žemyn,; žalią mygtuką su brūkšneliu, jei norite nutolinti; arba žalių rodyklių gretimoms žemėlapius.


METAR-TAF: